Holden Beach, NC (28462)

3:48 PM EDT on September 01, 2014 (GMT -0400)
Seashore Estates | Change Station
CLOSE
Current Station
Personal Weather Station
Location: Supply, NC
Elevation: 30 ft
Nearby Weather Stations

Elev 30 ft 33.93 °N, 78.30 °W | Updated 9 seconds ago

Clear
Clear
93.2 °F
Feels Like 89 °F
N
12.1
Wind Variable Wind from South
Gusts 12.1 mph

Today
High -- | Low -- °F
--% Chance of Precip.
Yesterday
High -- | Low -- °F
Precip. -- in
6:46 AM 7:38 PM
Waxing Crescent, 43% visible
Pressure 30.08 in
Visibility 10.0 miles
Clouds Clear
Heat Index 89 °F
Dew Point 29 °F
Humidity 10%
Rainfall 0.00 in
Snow Depth Not available.
UV 8 out of 12
Pollen 8.70 out of 12
Air Quality Not available.
Flu Activity Not available.
METAR KSUT 011935Z AUTO 18008KT 10SM CLR 29/24 A3008 RMK AO2 T02930240

More Conditions Fewer Conditions

Pressure 30.08 in
Visibility 10.0 miles
Clouds Clear
Heat Index 89 °F
Dew Point 29 °F
Humidity 10%
Rainfall 0.00 in
Snow Depth Not available.
UV 8 out of 12
Pollen 8.70 out of 12
Air Quality Not available.
Flu Activity Not available.
METAR KSUT 011935Z AUTO 18008KT 10SM CLR 29/24 A3008 RMK AO2 T02930240

More Conditions Fewer Conditions

10-Day Weather Forecast

Almanac

Astronomy

Sep. 01, 2014 Rise Set
Actual Time 6:46 AM EDT 7:38 PM EDT
Civil Twilight 6:21 AM EDT 8:04 PM EDT
Nautical Twilight 5:51 AM EDT 8:34 PM EDT
Astronomical Twilight 5:20 AM EDT 9:05 PM EDT
Moon 1:12 PM EDT 11:57 PM EDT
Length of Visible Light 13h 43m
Length of Day
12h 52m
Tomorrow will be 2m 2s shorter.
Waxing Crescent, 43% of the Moon is Illuminated
Today
Waxing Crescent
Sep 2
First Quarter
Sep 8
Full
Sep 15
Last Quarter
Sep 24
New

Today's Extremes

State Highs State Lows

Community

WunderPhotos

Upload Photos

1,749,387 photos uploaded!

WunderBlogs® & News

Nearby

Snow Depth

Station Depth Elevation
No new snow has been reported.

Earthquake Activity

City Distance Mag. Time & Date
No recent earthquake activity has been reported nearby.
Minimum magnitude displayed is 2.5.

Coastal Water Temperatures

Place Temperature
Johnny Mercer Pier, Wrightsville Beach, NC 84.0 °F
Springmaid Pier, SC 82.9 °F

Nearby Weather Stations